Columbia Heights, Minnesota
Current Conditions -  °F | °C
As of 1:53 AM on Wednesday 26 Nov 2014 (Local Time) from KMIC Reporting Station
Overcast Overcast  
Wind Chill: 21°   Ceiling: 5500
Heat Index: 26°   Visibility: 10mi
Dew Point: 16°   Wind: 5mph
Humidity: 66%   Direction: 100°E
Pressure: 30.02"   Gusts: NA
Location:  45.04°N, 93.26°W
Report Text: KMIC 260753Z AUTO 10004KT 10SM OVC055 M03/M09 A3002 RMK AO2 SLP179 T10331089
Loading
Personal Weather Stations






























Interactive Weather Map New forecast layout! Learn more

10-Day Weather Forecast

Advertisements
Track Severe Weather on mobile